sensor_id;sensor_type;location;lat;lon;timestamp;P1;durP1;ratioP1;P2;durP2;ratioP2
43152;SDS011;28756;49.064;9.290;2023-04-03T00:00:42;4.55;;;2.03;;
43152;SDS011;28756;49.064;9.290;2023-04-03T00:03:08;2.50;;;1.90;;
43152;SDS011;28756;49.064;9.290;2023-04-03T00:05:34;2.33;;;1.90;;
43152;SDS011;28756;49.064;9.290;2023-04-03T00:08:00;2.75;;;1.98;;
43152;SDS011;28756;49.064;9.290;2023-04-03T00:10:27;4.63;;;2.10;;
43152;SDS011;28756;49.064;9.290;2023-04-03T00:12:53;3.55;;;1.90;;
43152;SDS011;28756;49.064;9.290;2023-04-03T00:15:19;3.40;;;1.90;;
43152;SDS011;28756;49.064;9.290;2023-04-03T00:17:45;4.95;;;2.08;;
43152;SDS011;28756;49.064;9.290;2023-04-03T00:20:10;2.65;;;2.00;;
43152;SDS011;28756;49.064;9.290;2023-04-03T00:22:36;3.13;;;2.47;;
43152;SDS011;28756;49.064;9.290;2023-04-03T00:25:02;3.83;;;2.25;;
43152;SDS011;28756;49.064;9.290;2023-04-03T00:27:29;3.42;;;2.05;;
43152;SDS011;28756;49.064;9.290;2023-04-03T00:29:54;3.25;;;1.70;;
43152;SDS011;28756;49.064;9.290;2023-04-03T00:32:20;2.15;;;1.83;;
43152;SDS011;28756;49.064;9.290;2023-04-03T00:34:46;4.68;;;2.25;;
43152;SDS011;28756;49.064;9.290;2023-04-03T00:37:11;4.50;;;2.00;;
43152;SDS011;28756;49.064;9.290;2023-04-03T00:39:37;2.95;;;2.00;;
43152;SDS011;28756;49.064;9.290;2023-04-03T00:42:04;3.13;;;2.13;;
43152;SDS011;28756;49.064;9.290;2023-04-03T00:46:58;2.88;;;2.03;;
43152;SDS011;28756;49.064;9.290;2023-04-03T00:49:25;2.28;;;1.90;;
43152;SDS011;28756;49.064;9.290;2023-04-03T00:51:52;2.72;;;1.75;;
43152;SDS011;28756;49.064;9.290;2023-04-03T00:54:19;2.55;;;1.90;;
43152;SDS011;28756;49.064;9.290;2023-04-03T00:56:45;2.42;;;1.90;;
43152;SDS011;28756;49.064;9.290;2023-04-03T00:59:12;3.53;;;1.98;;
43152;SDS011;28756;49.064;9.290;2023-04-03T01:01:46;2.97;;;2.00;;
43152;SDS011;28756;49.064;9.290;2023-04-03T01:07:02;3.08;;;1.80;;
43152;SDS011;28756;49.064;9.290;2023-04-03T01:09:37;4.60;;;2.20;;
43152;SDS011;28756;49.064;9.290;2023-04-03T01:12:24;2.65;;;1.77;;
43152;SDS011;28756;49.064;9.290;2023-04-03T01:15:07;4.13;;;1.90;;
43152;SDS011;28756;49.064;9.290;2023-04-03T01:26:45;1.92;;;1.50;;
43152;SDS011;28756;49.064;9.290;2023-04-03T01:29:11;3.22;;;1.80;;
43152;SDS011;28756;49.064;9.290;2023-04-03T01:34:18;1.95;;;1.60;;
43152;SDS011;28756;49.064;9.290;2023-04-03T01:36:44;2.42;;;1.60;;
43152;SDS011;28756;49.064;9.290;2023-04-03T01:39:10;3.72;;;2.10;;
43152;SDS011;28756;49.064;9.290;2023-04-03T01:41:36;3.50;;;1.60;;
43152;SDS011;28756;49.064;9.290;2023-04-03T01:44:02;2.10;;;1.67;;
43152;SDS011;28756;49.064;9.290;2023-04-03T01:46:29;1.92;;;1.55;;
43152;SDS011;28756;49.064;9.290;2023-04-03T01:48:55;2.70;;;2.05;;
43152;SDS011;28756;49.064;9.290;2023-04-03T01:51:21;2.22;;;1.60;;
43152;SDS011;28756;49.064;9.290;2023-04-03T01:53:47;3.15;;;1.33;;
43152;SDS011;28756;49.064;9.290;2023-04-03T01:56:12;5.18;;;1.70;;
43152;SDS011;28756;49.064;9.290;2023-04-03T01:58:38;2.30;;;1.55;;
43152;SDS011;28756;49.064;9.290;2023-04-03T02:01:04;2.80;;;1.70;;
43152;SDS011;28756;49.064;9.290;2023-04-03T02:03:30;1.60;;;1.40;;
43152;SDS011;28756;49.064;9.290;2023-04-03T02:05:56;2.28;;;1.52;;
43152;SDS011;28756;49.064;9.290;2023-04-03T02:08:22;1.73;;;1.40;;
43152;SDS011;28756;49.064;9.290;2023-04-03T02:10:49;2.75;;;1.80;;
43152;SDS011;28756;49.064;9.290;2023-04-03T02:13:15;2.47;;;1.50;;
43152;SDS011;28756;49.064;9.290;2023-04-03T02:15:42;2.88;;;1.65;;
43152;SDS011;28756;49.064;9.290;2023-04-03T02:18:07;2.60;;;1.80;;
43152;SDS011;28756;49.064;9.290;2023-04-03T02:20:34;2.03;;;1.55;;
43152;SDS011;28756;49.064;9.290;2023-04-03T02:23:00;2.00;;;1.70;;
43152;SDS011;28756;49.064;9.290;2023-04-03T02:25:26;3.72;;;2.30;;
43152;SDS011;28756;49.064;9.290;2023-04-03T02:27:52;2.97;;;1.90;;
43152;SDS011;28756;49.064;9.290;2023-04-03T02:30:18;2.22;;;1.83;;
43152;SDS011;28756;49.064;9.290;2023-04-03T02:32:44;3.97;;;1.77;;
43152;SDS011;28756;49.064;9.290;2023-04-03T02:35:10;2.40;;;1.52;;
43152;SDS011;28756;49.064;9.290;2023-04-03T02:37:36;1.85;;;1.65;;
43152;SDS011;28756;49.064;9.290;2023-04-03T02:40:02;2.08;;;1.70;;
43152;SDS011;28756;49.064;9.290;2023-04-03T02:42:30;2.35;;;1.73;;
43152;SDS011;28756;49.064;9.290;2023-04-03T02:44:55;2.05;;;1.60;;
43152;SDS011;28756;49.064;9.290;2023-04-03T02:47:21;2.92;;;1.67;;
43152;SDS011;28756;49.064;9.290;2023-04-03T02:49:47;3.45;;;1.65;;
43152;SDS011;28756;49.064;9.290;2023-04-03T02:52:13;2.58;;;1.58;;
43152;SDS011;28756;49.064;9.290;2023-04-03T02:54:39;2.58;;;1.60;;
43152;SDS011;28756;49.064;9.290;2023-04-03T02:57:05;2.17;;;1.52;;
43152;SDS011;28756;49.064;9.290;2023-04-03T02:59:33;2.55;;;1.45;;
43152;SDS011;28756;49.064;9.290;2023-04-03T03:02:00;1.98;;;1.48;;
43152;SDS011;28756;49.064;9.290;2023-04-03T03:04:26;8.93;;;1.70;;
43152;SDS011;28756;49.064;9.290;2023-04-03T03:06:52;3.15;;;1.50;;
43152;SDS011;28756;49.064;9.290;2023-04-03T03:09:18;1.95;;;1.60;;
43152;SDS011;28756;49.064;9.290;2023-04-03T03:11:43;2.55;;;1.50;;
43152;SDS011;28756;49.064;9.290;2023-04-03T03:14:09;3.25;;;1.90;;
43152;SDS011;28756;49.064;9.290;2023-04-03T03:16:35;3.60;;;1.70;;
43152;SDS011;28756;49.064;9.290;2023-04-03T03:19:00;2.03;;;1.50;;
43152;SDS011;28756;49.064;9.290;2023-04-03T03:21:26;2.72;;;1.55;;
43152;SDS011;28756;49.064;9.290;2023-04-03T03:23:52;2.67;;;1.60;;
43152;SDS011;28756;49.064;9.290;2023-04-03T03:26:18;3.63;;;1.70;;
43152;SDS011;28756;49.064;9.290;2023-04-03T03:28:43;3.30;;;1.77;;
43152;SDS011;28756;49.064;9.290;2023-04-03T03:31:09;2.60;;;1.50;;
43152;SDS011;28756;49.064;9.290;2023-04-03T03:33:37;2.15;;;1.58;;
43152;SDS011;28756;49.064;9.290;2023-04-03T03:36:02;3.08;;;1.52;;
43152;SDS011;28756;49.064;9.290;2023-04-03T03:38:28;2.80;;;1.50;;
43152;SDS011;28756;49.064;9.290;2023-04-03T03:40:54;1.90;;;1.42;;
43152;SDS011;28756;49.064;9.290;2023-04-03T03:43:20;2.20;;;1.42;;
43152;SDS011;28756;49.064;9.290;2023-04-03T03:45:49;2.03;;;1.60;;
43152;SDS011;28756;49.064;9.290;2023-04-03T03:48:17;1.95;;;1.55;;
43152;SDS011;28756;49.064;9.290;2023-04-03T03:50:43;2.88;;;2.03;;
43152;SDS011;28756;49.064;9.290;2023-04-03T03:53:09;2.30;;;1.55;;
43152;SDS011;28756;49.064;9.290;2023-04-03T03:55:35;3.40;;;2.25;;
43152;SDS011;28756;49.064;9.290;2023-04-03T03:58:01;3.53;;;1.80;;
43152;SDS011;28756;49.064;9.290;2023-04-03T04:00:27;3.45;;;1.80;;
43152;SDS011;28756;49.064;9.290;2023-04-03T04:02:52;2.33;;;1.73;;
43152;SDS011;28756;49.064;9.290;2023-04-03T04:05:18;1.98;;;1.60;;
43152;SDS011;28756;49.064;9.290;2023-04-03T04:07:44;12.43;;;5.80;;
43152;SDS011;28756;49.064;9.290;2023-04-03T04:10:10;10.57;;;5.18;;
43152;SDS011;28756;49.064;9.290;2023-04-03T04:12:36;5.30;;;3.28;;
43152;SDS011;28756;49.064;9.290;2023-04-03T04:15:02;6.40;;;3.05;;
43152;SDS011;28756;49.064;9.290;2023-04-03T04:17:28;16.05;;;9.13;;
43152;SDS011;28756;49.064;9.290;2023-04-03T04:19:54;7.03;;;4.53;;
43152;SDS011;28756;49.064;9.290;2023-04-03T04:22:20;5.20;;;2.97;;
43152;SDS011;28756;49.064;9.290;2023-04-03T04:24:45;4.57;;;2.63;;
43152;SDS011;28756;49.064;9.290;2023-04-03T04:27:11;4.75;;;3.20;;
43152;SDS011;28756;49.064;9.290;2023-04-03T04:29:37;5.70;;;3.20;;
43152;SDS011;28756;49.064;9.290;2023-04-03T04:32:03;5.15;;;3.13;;
43152;SDS011;28756;49.064;9.290;2023-04-03T04:34:29;4.95;;;3.20;;
43152;SDS011;28756;49.064;9.290;2023-04-03T04:36:55;7.80;;;4.10;;
43152;SDS011;28756;49.064;9.290;2023-04-03T04:39:21;7.80;;;3.95;;
43152;SDS011;28756;49.064;9.290;2023-04-03T04:41:47;6.70;;;3.65;;
43152;SDS011;28756;49.064;9.290;2023-04-03T04:44:12;5.55;;;3.05;;
43152;SDS011;28756;49.064;9.290;2023-04-03T04:46:38;6.53;;;2.92;;
43152;SDS011;28756;49.064;9.290;2023-04-03T04:49:04;6.07;;;3.08;;
43152;SDS011;28756;49.064;9.290;2023-04-03T04:51:30;4.75;;;2.92;;
43152;SDS011;28756;49.064;9.290;2023-04-03T04:53:56;4.53;;;2.75;;
43152;SDS011;28756;49.064;9.290;2023-04-03T04:56:22;6.13;;;3.40;;
43152;SDS011;28756;49.064;9.290;2023-04-03T04:58:47;6.40;;;2.88;;
43152;SDS011;28756;49.064;9.290;2023-04-03T05:01:13;3.78;;;2.80;;
43152;SDS011;28756;49.064;9.290;2023-04-03T05:03:39;3.30;;;2.10;;
43152;SDS011;28756;49.064;9.290;2023-04-03T05:06:05;3.00;;;2.20;;
43152;SDS011;28756;49.064;9.290;2023-04-03T05:08:31;3.88;;;2.40;;
43152;SDS011;28756;49.064;9.290;2023-04-03T05:10:57;4.60;;;2.15;;
43152;SDS011;28756;49.064;9.290;2023-04-03T05:13:23;3.47;;;2.30;;
43152;SDS011;28756;49.064;9.290;2023-04-03T05:15:49;2.72;;;2.20;;
43152;SDS011;28756;49.064;9.290;2023-04-03T05:18:14;4.13;;;3.00;;
43152;SDS011;28756;49.064;9.290;2023-04-03T05:20:40;3.40;;;2.50;;
43152;SDS011;28756;49.064;9.290;2023-04-03T05:23:06;3.13;;;2.17;;
43152;SDS011;28756;49.064;9.290;2023-04-03T05:25:32;2.75;;;2.35;;
43152;SDS011;28756;49.064;9.290;2023-04-03T05:27:57;4.20;;;2.20;;
43152;SDS011;28756;49.064;9.290;2023-04-03T05:30:23;2.10;;;1.90;;
43152;SDS011;28756;49.064;9.290;2023-04-03T05:32:49;3.25;;;2.22;;
43152;SDS011;28756;49.064;9.290;2023-04-03T05:35:15;4.60;;;2.25;;
43152;SDS011;28756;49.064;9.290;2023-04-03T05:37:41;3.60;;;2.08;;
43152;SDS011;28756;49.064;9.290;2023-04-03T05:40:07;3.10;;;2.00;;
43152;SDS011;28756;49.064;9.290;2023-04-03T05:42:33;5.32;;;2.72;;
43152;SDS011;28756;49.064;9.290;2023-04-03T05:44:59;4.18;;;2.78;;
43152;SDS011;28756;49.064;9.290;2023-04-03T05:47:25;4.28;;;2.28;;
43152;SDS011;28756;49.064;9.290;2023-04-03T05:49:51;4.03;;;2.28;;
43152;SDS011;28756;49.064;9.290;2023-04-03T05:52:21;4.25;;;2.30;;
43152;SDS011;28756;49.064;9.290;2023-04-03T05:54:53;5.43;;;2.97;;
43152;SDS011;28756;49.064;9.290;2023-04-03T05:57:20;4.72;;;2.70;;
43152;SDS011;28756;49.064;9.290;2023-04-03T05:59:46;6.15;;;3.00;;
43152;SDS011;28756;49.064;9.290;2023-04-03T06:02:13;4.78;;;3.03;;
43152;SDS011;28756;49.064;9.290;2023-04-03T06:04:43;5.97;;;3.45;;
43152;SDS011;28756;49.064;9.290;2023-04-03T06:07:12;4.30;;;2.83;;
43152;SDS011;28756;49.064;9.290;2023-04-03T06:09:41;4.43;;;2.75;;
43152;SDS011;28756;49.064;9.290;2023-04-03T06:12:07;5.22;;;2.85;;
43152;SDS011;28756;49.064;9.290;2023-04-03T06:14:33;4.10;;;2.40;;
43152;SDS011;28756;49.064;9.290;2023-04-03T06:17:00;3.92;;;2.38;;
43152;SDS011;28756;49.064;9.290;2023-04-03T06:19:26;3.42;;;2.30;;
43152;SDS011;28756;49.064;9.290;2023-04-03T06:21:53;5.03;;;2.30;;
43152;SDS011;28756;49.064;9.290;2023-04-03T06:24:19;4.57;;;2.65;;
43152;SDS011;28756;49.064;9.290;2023-04-03T06:26:46;4.20;;;2.42;;
43152;SDS011;28756;49.064;9.290;2023-04-03T06:29:12;4.25;;;2.45;;
43152;SDS011;28756;49.064;9.290;2023-04-03T06:31:38;3.80;;;2.55;;
43152;SDS011;28756;49.064;9.290;2023-04-03T06:34:04;15.02;;;3.58;;
43152;SDS011;28756;49.064;9.290;2023-04-03T06:36:32;6.20;;;2.95;;
43152;SDS011;28756;49.064;9.290;2023-04-03T06:38:58;4.25;;;2.53;;
43152;SDS011;28756;49.064;9.290;2023-04-03T06:41:24;5.28;;;2.78;;
43152;SDS011;28756;49.064;9.290;2023-04-03T06:43:51;4.22;;;2.47;;
43152;SDS011;28756;49.064;9.290;2023-04-03T06:46:17;5.22;;;2.67;;
43152;SDS011;28756;49.064;9.290;2023-04-03T06:48:45;4.75;;;2.63;;
43152;SDS011;28756;49.064;9.290;2023-04-03T06:51:15;4.80;;;2.70;;
43152;SDS011;28756;49.064;9.290;2023-04-03T06:53:55;4.47;;;2.63;;
43152;SDS011;28756;49.064;9.290;2023-04-03T06:56:23;3.60;;;2.20;;
43152;SDS011;28756;49.064;9.290;2023-04-03T06:58:51;4.32;;;2.22;;
43152;SDS011;28756;49.064;9.290;2023-04-03T07:01:19;4.32;;;2.25;;
43152;SDS011;28756;49.064;9.290;2023-04-03T07:03:46;3.35;;;2.30;;
43152;SDS011;28756;49.064;9.290;2023-04-03T07:06:15;3.58;;;2.70;;
43152;SDS011;28756;49.064;9.290;2023-04-03T07:08:43;4.88;;;2.55;;
43152;SDS011;28756;49.064;9.290;2023-04-03T07:11:10;6.47;;;2.80;;
43152;SDS011;28756;49.064;9.290;2023-04-03T07:13:37;5.40;;;2.58;;
43152;SDS011;28756;49.064;9.290;2023-04-03T07:16:03;4.05;;;2.70;;
43152;SDS011;28756;49.064;9.290;2023-04-03T07:18:30;5.32;;;2.65;;
43152;SDS011;28756;49.064;9.290;2023-04-03T07:20:57;5.90;;;3.00;;
43152;SDS011;28756;49.064;9.290;2023-04-03T07:23:23;4.68;;;2.45;;
43152;SDS011;28756;49.064;9.290;2023-04-03T07:25:49;5.30;;;2.80;;
43152;SDS011;28756;49.064;9.290;2023-04-03T07:28:16;4.90;;;2.83;;
43152;SDS011;28756;49.064;9.290;2023-04-03T07:30:45;5.07;;;2.67;;
43152;SDS011;28756;49.064;9.290;2023-04-03T07:33:16;4.40;;;2.60;;
43152;SDS011;28756;49.064;9.290;2023-04-03T07:35:44;4.13;;;2.33;;
43152;SDS011;28756;49.064;9.290;2023-04-03T07:38:11;3.33;;;2.33;;
43152;SDS011;28756;49.064;9.290;2023-04-03T07:40:37;4.60;;;3.50;;
43152;SDS011;28756;49.064;9.290;2023-04-03T07:43:04;4.85;;;2.60;;
43152;SDS011;28756;49.064;9.290;2023-04-03T07:45:30;7.05;;;2.70;;
43152;SDS011;28756;49.064;9.290;2023-04-03T07:47:57;5.38;;;2.42;;
43152;SDS011;28756;49.064;9.290;2023-04-03T07:50:23;4.78;;;2.50;;
43152;SDS011;28756;49.064;9.290;2023-04-03T07:52:49;5.15;;;2.15;;
43152;SDS011;28756;49.064;9.290;2023-04-03T07:55:15;3.63;;;2.30;;
43152;SDS011;28756;49.064;9.290;2023-04-03T07:57:41;3.67;;;2.40;;
43152;SDS011;28756;49.064;9.290;2023-04-03T08:00:07;4.38;;;2.22;;
43152;SDS011;28756;49.064;9.290;2023-04-03T08:02:34;4.53;;;2.30;;
43152;SDS011;28756;49.064;9.290;2023-04-03T08:05:00;4.65;;;2.33;;
43152;SDS011;28756;49.064;9.290;2023-04-03T08:07:26;9.15;;;4.20;;
43152;SDS011;28756;49.064;9.290;2023-04-03T08:09:52;5.80;;;3.40;;
43152;SDS011;28756;49.064;9.290;2023-04-03T08:12:18;7.25;;;3.10;;
43152;SDS011;28756;49.064;9.290;2023-04-03T08:14:43;8.13;;;2.90;;
43152;SDS011;28756;49.064;9.290;2023-04-03T08:17:09;5.38;;;2.30;;
43152;SDS011;28756;49.064;9.290;2023-04-03T08:19:37;4.57;;;2.67;;
43152;SDS011;28756;49.064;9.290;2023-04-03T08:22:04;5.43;;;2.35;;
43152;SDS011;28756;49.064;9.290;2023-04-03T08:24:31;3.60;;;2.17;;
43152;SDS011;28756;49.064;9.290;2023-04-03T08:26:58;5.72;;;2.50;;
43152;SDS011;28756;49.064;9.290;2023-04-03T08:29:24;5.93;;;2.70;;
43152;SDS011;28756;49.064;9.290;2023-04-03T08:31:50;7.15;;;2.70;;
43152;SDS011;28756;49.064;9.290;2023-04-03T08:34:16;5.22;;;2.40;;
43152;SDS011;28756;49.064;9.290;2023-04-03T08:36:44;3.60;;;2.25;;
43152;SDS011;28756;49.064;9.290;2023-04-03T08:39:10;4.15;;;2.20;;
43152;SDS011;28756;49.064;9.290;2023-04-03T08:41:37;3.30;;;2.10;;
43152;SDS011;28756;49.064;9.290;2023-04-03T08:49:38;3.00;;;2.03;;
43152;SDS011;28756;49.064;9.290;2023-04-03T08:52:12;2.97;;;1.95;;
43152;SDS011;28756;49.064;9.290;2023-04-03T08:54:51;3.75;;;2.08;;
43152;SDS011;28756;49.064;9.290;2023-04-03T08:57:25;4.22;;;2.05;;
43152;SDS011;28756;49.064;9.290;2023-04-03T09:00:18;5.13;;;2.00;;
43152;SDS011;28756;49.064;9.290;2023-04-03T09:02:50;5.85;;;1.95;;
43152;SDS011;28756;49.064;9.290;2023-04-03T09:05:29;3.95;;;1.70;;
43152;SDS011;28756;49.064;9.290;2023-04-03T09:08:05;3.50;;;1.77;;
43152;SDS011;28756;49.064;9.290;2023-04-03T09:10:52;3.83;;;1.75;;
43152;SDS011;28756;49.064;9.290;2023-04-03T09:13:45;3.70;;;1.80;;
43152;SDS011;28756;49.064;9.290;2023-04-03T09:16:54;3.25;;;1.70;;
43152;SDS011;28756;49.064;9.290;2023-04-03T09:24:55;2.95;;;1.60;;
43152;SDS011;28756;49.064;9.290;2023-04-03T09:27:42;3.85;;;1.90;;
43152;SDS011;28756;49.064;9.290;2023-04-03T09:30:16;3.45;;;2.17;;
43152;SDS011;28756;49.064;9.290;2023-04-03T09:32:48;5.10;;;2.05;;
43152;SDS011;28756;49.064;9.290;2023-04-03T09:35:27;3.40;;;1.90;;
43152;SDS011;28756;49.064;9.290;2023-04-03T09:41:19;3.63;;;1.80;;
43152;SDS011;28756;49.064;9.290;2023-04-03T09:43:38;5.40;;;2.03;;
43152;SDS011;28756;49.064;9.290;2023-04-03T09:46:28;4.72;;;1.90;;
43152;SDS011;28756;49.064;9.290;2023-04-03T09:48:58;3.13;;;2.35;;
43152;SDS011;28756;49.064;9.290;2023-04-03T09:51:28;5.07;;;2.50;;
43152;SDS011;28756;49.064;9.290;2023-04-03T09:53:56;3.42;;;1.88;;
43152;SDS011;28756;49.064;9.290;2023-04-03T09:56:24;2.95;;;1.60;;
43152;SDS011;28756;49.064;9.290;2023-04-03T10:01:28;3.58;;;1.63;;
43152;SDS011;28756;49.064;9.290;2023-04-03T10:06:31;3.45;;;2.00;;
43152;SDS011;28756;49.064;9.290;2023-04-03T10:09:15;6.65;;;2.10;;
43152;SDS011;28756;49.064;9.290;2023-04-03T10:14:34;2.65;;;1.90;;
43152;SDS011;28756;49.064;9.290;2023-04-03T10:17:05;3.40;;;2.05;;
43152;SDS011;28756;49.064;9.290;2023-04-03T10:19:49;3.92;;;2.13;;
43152;SDS011;28756;49.064;9.290;2023-04-03T10:29:08;5.43;;;1.83;;
43152;SDS011;28756;49.064;9.290;2023-04-03T10:31:53;4.80;;;2.78;;
43152;SDS011;28756;49.064;9.290;2023-04-03T10:34:44;3.88;;;1.90;;
43152;SDS011;28756;49.064;9.290;2023-04-03T10:37:18;4.55;;;2.05;;
43152;SDS011;28756;49.064;9.290;2023-04-03T10:43:14;5.65;;;2.20;;
43152;SDS011;28756;49.064;9.290;2023-04-03T10:45:51;4.22;;;2.80;;
43152;SDS011;28756;49.064;9.290;2023-04-03T10:51:48;3.45;;;1.90;;
43152;SDS011;28756;49.064;9.290;2023-04-03T10:54:40;5.15;;;2.50;;
43152;SDS011;28756;49.064;9.290;2023-04-03T10:57:16;4.47;;;2.55;;
43152;SDS011;28756;49.064;9.290;2023-04-03T10:59:44;5.40;;;3.10;;
43152;SDS011;28756;49.064;9.290;2023-04-03T11:02:55;3.65;;;2.10;;
43152;SDS011;28756;49.064;9.290;2023-04-03T11:08:16;3.55;;;1.98;;
43152;SDS011;28756;49.064;9.290;2023-04-03T11:14:03;5.25;;;2.17;;
43152;SDS011;28756;49.064;9.290;2023-04-03T11:16:59;3.63;;;1.95;;
43152;SDS011;28756;49.064;9.290;2023-04-03T11:19:41;2.17;;;1.70;;
43152;SDS011;28756;49.064;9.290;2023-04-03T11:22:35;3.72;;;1.58;;
43152;SDS011;28756;49.064;9.290;2023-04-03T11:27:44;3.05;;;1.27;;
43152;SDS011;28756;49.064;9.290;2023-04-03T11:30:28;2.58;;;1.27;;
43152;SDS011;28756;49.064;9.290;2023-04-03T11:36:31;2.40;;;1.17;;
43152;SDS011;28756;49.064;9.290;2023-04-03T11:39:10;2.78;;;1.42;;
43152;SDS011;28756;49.064;9.290;2023-04-03T11:42:12;3.60;;;2.10;;
43152;SDS011;28756;49.064;9.290;2023-04-03T11:44:42;8.82;;;2.80;;
43152;SDS011;28756;49.064;9.290;2023-04-03T11:47:09;5.10;;;1.70;;
43152;SDS011;28756;49.064;9.290;2023-04-03T11:50:00;6.53;;;3.28;;
43152;SDS011;28756;49.064;9.290;2023-04-03T12:05:51;4.78;;;2.10;;
43152;SDS011;28756;49.064;9.290;2023-04-03T12:08:43;4.65;;;1.77;;
43152;SDS011;28756;49.064;9.290;2023-04-03T12:16:25;3.05;;;1.70;;
43152;SDS011;28756;49.064;9.290;2023-04-03T12:24:31;3.92;;;1.52;;
43152;SDS011;28756;49.064;9.290;2023-04-03T12:35:39;2.30;;;1.60;;
43152;SDS011;28756;49.064;9.290;2023-04-03T12:44:52;3.08;;;1.50;;
43152;SDS011;28756;49.064;9.290;2023-04-03T12:47:43;3.20;;;1.60;;
43152;SDS011;28756;49.064;9.290;2023-04-03T12:55:43;3.63;;;1.50;;
43152;SDS011;28756;49.064;9.290;2023-04-03T12:58:13;3.33;;;1.67;;
43152;SDS011;28756;49.064;9.290;2023-04-03T13:00:58;3.17;;;2.08;;
43152;SDS011;28756;49.064;9.290;2023-04-03T13:03:40;3.58;;;1.73;;
43152;SDS011;28756;49.064;9.290;2023-04-03T13:06:21;2.78;;;1.75;;
43152;SDS011;28756;49.064;9.290;2023-04-03T13:09:03;2.35;;;1.50;;
43152;SDS011;28756;49.064;9.290;2023-04-03T13:11:33;3.58;;;1.42;;
43152;SDS011;28756;49.064;9.290;2023-04-03T13:14:04;1.80;;;1.15;;
43152;SDS011;28756;49.064;9.290;2023-04-03T13:16:42;3.60;;;1.40;;
43152;SDS011;28756;49.064;9.290;2023-04-03T13:19:27;2.17;;;1.45;;
43152;SDS011;28756;49.064;9.290;2023-04-03T13:21:57;2.63;;;1.30;;
43152;SDS011;28756;49.064;9.290;2023-04-03T13:24:30;3.15;;;1.83;;
43152;SDS011;28756;49.064;9.290;2023-04-03T13:27:01;2.17;;;1.30;;
43152;SDS011;28756;49.064;9.290;2023-04-03T13:29:29;2.70;;;1.50;;
43152;SDS011;28756;49.064;9.290;2023-04-03T13:32:00;2.08;;;1.20;;
43152;SDS011;28756;49.064;9.290;2023-04-03T13:34:29;5.43;;;2.30;;
43152;SDS011;28756;49.064;9.290;2023-04-03T13:37:19;3.45;;;1.85;;
43152;SDS011;28756;49.064;9.290;2023-04-03T13:40:02;6.75;;;1.45;;
43152;SDS011;28756;49.064;9.290;2023-04-03T13:42:38;3.65;;;1.70;;
43152;SDS011;28756;49.064;9.290;2023-04-03T13:45:16;3.22;;;1.88;;
43152;SDS011;28756;49.064;9.290;2023-04-03T13:47:46;2.78;;;1.73;;
43152;SDS011;28756;49.064;9.290;2023-04-03T13:52:47;3.58;;;1.80;;
43152;SDS011;28756;49.064;9.290;2023-04-03T13:55:33;2.83;;;1.60;;
43152;SDS011;28756;49.064;9.290;2023-04-03T13:58:03;3.55;;;1.70;;
43152;SDS011;28756;49.064;9.290;2023-04-03T14:03:31;2.28;;;1.50;;
43152;SDS011;28756;49.064;9.290;2023-04-03T14:06:10;3.35;;;1.70;;
43152;SDS011;28756;49.064;9.290;2023-04-03T14:08:40;4.05;;;1.40;;
43152;SDS011;28756;49.064;9.290;2023-04-03T14:11:09;2.75;;;1.60;;
43152;SDS011;28756;49.064;9.290;2023-04-03T14:13:49;4.75;;;1.40;;
43152;SDS011;28756;49.064;9.290;2023-04-03T14:16:17;2.90;;;1.70;;
43152;SDS011;28756;49.064;9.290;2023-04-03T14:18:48;2.85;;;1.60;;
43152;SDS011;28756;49.064;9.290;2023-04-03T14:21:15;3.58;;;1.50;;
43152;SDS011;28756;49.064;9.290;2023-04-03T14:23:44;3.72;;;1.70;;
43152;SDS011;28756;49.064;9.290;2023-04-03T14:26:21;3.35;;;1.48;;
43152;SDS011;28756;49.064;9.290;2023-04-03T14:28:50;3.42;;;1.80;;
43152;SDS011;28756;49.064;9.290;2023-04-03T14:31:19;3.20;;;1.80;;
43152;SDS011;28756;49.064;9.290;2023-04-03T14:33:46;3.42;;;1.73;;
43152;SDS011;28756;49.064;9.290;2023-04-03T14:38:43;3.35;;;1.80;;
43152;SDS011;28756;49.064;9.290;2023-04-03T14:41:11;2.15;;;1.58;;
43152;SDS011;28756;49.064;9.290;2023-04-03T14:43:39;3.25;;;1.75;;
43152;SDS011;28756;49.064;9.290;2023-04-03T14:46:10;4.32;;;1.90;;
43152;SDS011;28756;49.064;9.290;2023-04-03T14:48:42;2.60;;;1.80;;
43152;SDS011;28756;49.064;9.290;2023-04-03T14:51:12;1.77;;;1.50;;
43152;SDS011;28756;49.064;9.290;2023-04-03T14:53:40;4.20;;;1.60;;
43152;SDS011;28756;49.064;9.290;2023-04-03T14:56:19;3.33;;;1.58;;
43152;SDS011;28756;49.064;9.290;2023-04-03T14:58:51;2.28;;;1.60;;
43152;SDS011;28756;49.064;9.290;2023-04-03T15:01:25;2.20;;;1.70;;
43152;SDS011;28756;49.064;9.290;2023-04-03T15:03:52;3.38;;;2.20;;
43152;SDS011;28756;49.064;9.290;2023-04-03T15:06:18;3.33;;;2.35;;
43152;SDS011;28756;49.064;9.290;2023-04-03T15:08:45;2.80;;;1.80;;
43152;SDS011;28756;49.064;9.290;2023-04-03T15:11:12;3.47;;;2.17;;
43152;SDS011;28756;49.064;9.290;2023-04-03T15:13:39;2.45;;;1.65;;
43152;SDS011;28756;49.064;9.290;2023-04-03T15:16:15;2.65;;;1.90;;
43152;SDS011;28756;49.064;9.290;2023-04-03T15:18:43;4.30;;;2.35;;
43152;SDS011;28756;49.064;9.290;2023-04-03T15:21:11;2.95;;;2.00;;
43152;SDS011;28756;49.064;9.290;2023-04-03T15:23:37;1.77;;;1.50;;
43152;SDS011;28756;49.064;9.290;2023-04-03T15:26:02;3.38;;;1.55;;
43152;SDS011;28756;49.064;9.290;2023-04-03T15:28:32;4.28;;;2.38;;
43152;SDS011;28756;49.064;9.290;2023-04-03T15:31:07;2.25;;;1.77;;
43152;SDS011;28756;49.064;9.290;2023-04-03T15:33:34;4.07;;;2.40;;
43152;SDS011;28756;49.064;9.290;2023-04-03T15:36:00;3.60;;;2.47;;
43152;SDS011;28756;49.064;9.290;2023-04-03T15:38:26;3.10;;;1.90;;
43152;SDS011;28756;49.064;9.290;2023-04-03T15:40:52;3.63;;;1.90;;
43152;SDS011;28756;49.064;9.290;2023-04-03T15:43:20;3.58;;;1.83;;
43152;SDS011;28756;49.064;9.290;2023-04-03T15:45:46;3.55;;;1.70;;
43152;SDS011;28756;49.064;9.290;2023-04-03T15:48:13;2.90;;;1.90;;
43152;SDS011;28756;49.064;9.290;2023-04-03T15:50:39;3.13;;;1.95;;
43152;SDS011;28756;49.064;9.290;2023-04-03T15:53:06;4.35;;;1.73;;
43152;SDS011;28756;49.064;9.290;2023-04-03T15:55:34;4.20;;;2.20;;
43152;SDS011;28756;49.064;9.290;2023-04-03T15:58:02;4.10;;;2.08;;
43152;SDS011;28756;49.064;9.290;2023-04-03T16:00:28;3.40;;;1.92;;
43152;SDS011;28756;49.064;9.290;2023-04-03T16:02:56;3.30;;;2.00;;
43152;SDS011;28756;49.064;9.290;2023-04-03T16:05:26;2.67;;;1.80;;
43152;SDS011;28756;49.064;9.290;2023-04-03T16:07:52;3.42;;;1.73;;
43152;SDS011;28756;49.064;9.290;2023-04-03T16:10:19;3.30;;;2.03;;
43152;SDS011;28756;49.064;9.290;2023-04-03T16:12:46;3.00;;;2.00;;
43152;SDS011;28756;49.064;9.290;2023-04-03T16:15:12;2.83;;;1.70;;
43152;SDS011;28756;49.064;9.290;2023-04-03T16:17:38;2.25;;;1.85;;
43152;SDS011;28756;49.064;9.290;2023-04-03T16:20:08;2.20;;;1.60;;
43152;SDS011;28756;49.064;9.290;2023-04-03T16:22:36;3.97;;;1.90;;
43152;SDS011;28756;49.064;9.290;2023-04-03T16:25:03;3.83;;;1.73;;
43152;SDS011;28756;49.064;9.290;2023-04-03T16:27:31;3.60;;;1.90;;
43152;SDS011;28756;49.064;9.290;2023-04-03T16:29:57;2.80;;;1.67;;
43152;SDS011;28756;49.064;9.290;2023-04-03T16:32:23;3.58;;;1.77;;
43152;SDS011;28756;49.064;9.290;2023-04-03T16:34:53;2.75;;;1.75;;
43152;SDS011;28756;49.064;9.290;2023-04-03T16:37:20;2.88;;;1.67;;
43152;SDS011;28756;49.064;9.290;2023-04-03T16:39:46;2.83;;;1.65;;
43152;SDS011;28756;49.064;9.290;2023-04-03T16:42:11;2.58;;;1.60;;
43152;SDS011;28756;49.064;9.290;2023-04-03T16:44:37;4.18;;;2.15;;
43152;SDS011;28756;49.064;9.290;2023-04-03T16:47:04;4.60;;;2.17;;
43152;SDS011;28756;49.064;9.290;2023-04-03T16:49:32;3.83;;;1.90;;
43152;SDS011;28756;49.064;9.290;2023-04-03T16:51:59;3.50;;;1.70;;
43152;SDS011;28756;49.064;9.290;2023-04-03T16:54:29;4.68;;;2.25;;
43152;SDS011;28756;49.064;9.290;2023-04-03T16:56:56;3.92;;;2.30;;
43152;SDS011;28756;49.064;9.290;2023-04-03T16:59:22;4.25;;;1.80;;